createdAt,value
2023-05-15T00:00:33.500Z,18.08
2023-05-15T00:03:38.964Z,17.00
2023-05-15T00:06:44.571Z,16.92
2023-05-15T00:09:50.036Z,17.23
2023-05-15T00:12:55.645Z,16.52
2023-05-15T00:16:01.109Z,15.98
2023-05-15T00:19:06.560Z,15.80
2023-05-15T00:22:11.840Z,16.40
2023-05-15T00:25:19.762Z,15.93
2023-05-15T00:28:25.536Z,15.55
2023-05-15T00:31:31.075Z,15.02
2023-05-15T00:34:37.338Z,15.35
2023-05-15T00:37:42.635Z,14.02
2023-05-15T00:40:50.235Z,14.00
2023-05-15T00:43:56.775Z,14.00
2023-05-15T00:47:04.225Z,13.32
2023-05-15T00:50:10.365Z,12.93
2023-05-15T00:53:16.471Z,13.50
2023-05-15T00:56:22.629Z,13.18
2023-05-15T00:59:30.413Z,13.45
2023-05-15T01:02:37.015Z,13.73
2023-05-15T01:05:42.482Z,13.15
2023-05-15T01:08:49.921Z,12.75
2023-05-15T01:11:57.873Z,13.50
2023-05-15T01:15:05.408Z,12.77
2023-05-15T01:18:11.222Z,13.18
2023-05-15T01:21:37.762Z,11.90
2023-05-15T01:25:06.619Z,11.93
2023-05-15T01:28:31.534Z,11.93
2023-05-15T01:31:38.966Z,11.10
2023-05-15T01:35:08.817Z,12.93
2023-05-15T01:38:28.006Z,12.57
2023-05-15T01:41:43.246Z,12.27
2023-05-15T01:44:57.469Z,10.77
2023-05-15T01:48:09.383Z,11.18
2023-05-15T01:51:16.416Z,11.48
2023-05-15T01:54:23.414Z,11.30
2023-05-15T01:57:29.986Z,11.50
2023-05-15T02:00:36.875Z,12.05
2023-05-15T02:03:42.733Z,11.90
2023-05-15T02:06:50.638Z,12.40
2023-05-15T02:09:56.810Z,12.20
2023-05-15T02:13:02.115Z,11.40
2023-05-15T02:16:07.696Z,12.02
2023-05-15T02:19:13.360Z,10.93
2023-05-15T02:22:19.700Z,11.70
2023-05-15T02:25:47.933Z,12.07
2023-05-15T02:29:32.151Z,12.80
2023-05-15T02:33:15.140Z,12.50
2023-05-15T02:36:26.677Z,12.32
2023-05-15T02:39:34.036Z,12.43
2023-05-15T02:42:40.829Z,12.77
2023-05-15T02:45:48.134Z,13.25
2023-05-15T02:48:55.157Z,12.13
2023-05-15T02:52:00.484Z,12.00
2023-05-15T02:55:06.577Z,12.93
2023-05-15T02:58:12.499Z,13.68
2023-05-15T03:01:17.974Z,12.88
2023-05-15T03:04:23.768Z,12.57
2023-05-15T03:07:29.312Z,12.57
2023-05-15T03:10:34.905Z,13.15
2023-05-15T03:13:40.434Z,13.73
2023-05-15T03:16:45.893Z,12.35
2023-05-15T03:19:51.276Z,12.23
2023-05-15T03:22:56.808Z,12.60
2023-05-15T03:26:02.335Z,11.23
2023-05-15T03:29:08.164Z,11.88
2023-05-15T03:32:13.337Z,12.63
2023-05-15T03:35:18.597Z,12.00
2023-05-15T03:38:24.114Z,13.32
2023-05-15T03:41:29.668Z,12.68
2023-05-15T03:44:35.246Z,12.23
2023-05-15T03:47:41.275Z,12.10
2023-05-15T03:50:46.945Z,11.88
2023-05-15T03:53:52.466Z,12.70
2023-05-15T03:57:01.446Z,13.38
2023-05-15T04:00:11.109Z,13.75
2023-05-15T04:03:20.292Z,13.65
2023-05-15T04:06:25.980Z,13.75
2023-05-15T04:09:31.560Z,13.52
2023-05-15T04:12:37.251Z,12.25
2023-05-15T04:15:42.707Z,13.18
2023-05-15T04:18:48.228Z,13.05
2023-05-15T04:21:53.917Z,14.05
2023-05-15T04:24:59.309Z,14.93
2023-05-15T04:28:04.893Z,12.93
2023-05-15T04:31:10.363Z,15.32
2023-05-15T04:34:16.251Z,14.93
2023-05-15T04:37:21.430Z,14.88
2023-05-15T04:40:27.261Z,15.98
2023-05-15T04:43:32.453Z,18.13
2023-05-15T04:46:37.782Z,17.92
2023-05-15T04:49:43.498Z,18.17
2023-05-15T04:52:49.004Z,18.40
2023-05-15T04:55:54.433Z,19.25
2023-05-15T04:59:00.015Z,22.08
2023-05-15T05:02:05.625Z,20.88
2023-05-15T05:05:11.347Z,19.40
2023-05-15T05:08:16.595Z,18.98
2023-05-15T05:11:22.198Z,19.52
2023-05-15T05:14:27.745Z,18.85
2023-05-15T05:17:33.132Z,19.48
2023-05-15T05:20:38.322Z,19.33
2023-05-15T05:23:44.282Z,19.13
2023-05-15T05:26:50.064Z,20.15
2023-05-15T05:29:55.546Z,20.52
2023-05-15T05:33:01.276Z,19.05
2023-05-15T05:36:06.603Z,22.40
2023-05-15T05:39:12.156Z,20.23
2023-05-15T05:42:17.729Z,20.58
2023-05-15T05:45:23.423Z,24.25
2023-05-15T05:48:29.305Z,22.45
2023-05-15T05:51:39.461Z,21.50
2023-05-15T05:54:46.645Z,26.10
2023-05-15T05:57:52.736Z,25.05
2023-05-15T06:00:58.439Z,24.70
2023-05-15T06:04:03.690Z,24.92
2023-05-15T06:07:09.698Z,23.30
2023-05-15T06:10:15.190Z,22.08
2023-05-15T06:13:22.473Z,20.98
2023-05-15T06:16:27.576Z,20.52
2023-05-15T06:19:32.985Z,20.05
2023-05-15T06:22:39.226Z,21.35
2023-05-15T06:25:44.170Z,19.55
2023-05-15T06:28:49.310Z,18.17
2023-05-15T06:31:54.696Z,16.50
2023-05-15T06:35:00.171Z,16.85
2023-05-15T06:38:05.359Z,16.33
2023-05-15T06:41:10.481Z,16.13
2023-05-15T06:44:16.337Z,15.50
2023-05-15T06:47:22.009Z,16.17
2023-05-15T06:50:27.680Z,16.90
2023-05-15T06:53:32.991Z,16.13
2023-05-15T06:56:38.546Z,17.40
2023-05-15T06:59:44.105Z,16.17
2023-05-15T07:02:49.641Z,15.13
2023-05-15T07:05:55.162Z,14.65
2023-05-15T07:09:00.986Z,13.43
2023-05-15T07:12:07.085Z,13.57
2023-05-15T07:15:12.758Z,12.80
2023-05-15T07:18:18.884Z,11.43
2023-05-15T07:21:24.146Z,11.35
2023-05-15T07:24:29.495Z,10.95
2023-05-15T07:27:34.758Z,13.05
2023-05-15T07:30:39.997Z,13.57
2023-05-15T07:33:45.460Z,12.60
2023-05-15T07:36:50.919Z,21.50
2023-05-15T07:39:56.883Z,13.98
2023-05-15T07:43:02.500Z,11.80
2023-05-15T07:46:08.005Z,12.25
2023-05-15T07:49:13.418Z,10.80
2023-05-15T07:52:18.437Z,10.32
2023-05-15T07:55:23.858Z,10.82
2023-05-15T07:58:29.415Z,11.52
2023-05-15T08:01:35.248Z,10.40
2023-05-15T08:04:41.501Z,10.90
2023-05-15T08:07:47.052Z,11.82
2023-05-15T08:10:52.425Z,10.73
2023-05-15T08:13:57.779Z,11.18
2023-05-15T08:17:02.779Z,11.80
2023-05-15T08:20:08.847Z,10.02
2023-05-15T08:23:14.263Z,9.35
2023-05-15T08:26:19.734Z,9.02
2023-05-15T08:29:25.071Z,11.20
2023-05-15T08:32:31.003Z,9.95
2023-05-15T08:35:36.590Z,7.80
2023-05-15T08:38:42.092Z,8.15
2023-05-15T08:41:57.805Z,8.10
2023-05-15T08:45:03.495Z,7.53
2023-05-15T08:48:14.127Z,7.68
2023-05-15T08:51:20.695Z,9.18
2023-05-15T08:54:27.245Z,9.68
2023-05-15T08:57:34.157Z,7.63
2023-05-15T09:00:40.410Z,8.32
2023-05-15T09:03:47.385Z,8.40
2023-05-15T09:06:54.311Z,8.70
2023-05-15T09:10:01.902Z,14.80
2023-05-15T09:13:08.226Z,15.30
2023-05-15T09:16:13.863Z,11.10
2023-05-15T09:19:22.863Z,8.57
2023-05-15T09:22:35.114Z,7.22
2023-05-15T09:25:53.404Z,7.55
2023-05-15T09:29:03.964Z,8.05
2023-05-15T09:32:15.912Z,8.63
2023-05-15T09:35:41.662Z,8.70
2023-05-15T09:38:48.691Z,8.82
2023-05-15T09:41:54.734Z,8.00
2023-05-15T09:45:00.130Z,7.75
2023-05-15T09:48:07.369Z,8.18
2023-05-15T09:51:17.579Z,7.88
2023-05-15T09:54:24.443Z,8.63
2023-05-15T09:57:30.017Z,8.45
2023-05-15T10:00:36.449Z,9.02
2023-05-15T10:04:05.378Z,8.25
2023-05-15T10:07:11.010Z,8.77
2023-05-15T10:10:16.439Z,9.10
2023-05-15T10:13:23.275Z,8.02
2023-05-15T10:16:31.569Z,8.68
2023-05-15T10:19:44.028Z,8.25
2023-05-15T10:22:57.206Z,7.03
2023-05-15T10:26:29.665Z,7.18
2023-05-15T10:29:36.388Z,6.97
2023-05-15T10:32:43.679Z,6.28
2023-05-15T10:35:51.801Z,7.32
2023-05-15T10:38:59.872Z,6.95
2023-05-15T10:42:06.981Z,6.32
2023-05-15T10:45:12.843Z,6.40
2023-05-15T10:48:19.346Z,7.05
2023-05-15T10:51:29.913Z,6.20
2023-05-15T10:54:36.010Z,7.18
2023-05-15T10:57:41.484Z,7.03
2023-05-15T11:00:46.903Z,7.40
2023-05-15T11:04:06.984Z,6.80
2023-05-15T11:07:14.923Z,6.80
2023-05-15T11:10:29.203Z,6.63
2023-05-15T11:14:05.449Z,5.38
2023-05-15T11:17:17.964Z,4.55
2023-05-15T11:20:35.145Z,5.20
2023-05-15T11:23:42.326Z,4.75
2023-05-15T11:26:53.471Z,5.28
2023-05-15T11:30:09.783Z,6.15
2023-05-15T11:33:16.618Z,6.00
2023-05-15T11:36:25.079Z,5.13
2023-05-15T11:39:30.949Z,6.90
2023-05-15T11:42:36.831Z,5.75
2023-05-15T11:45:43.833Z,5.93
2023-05-15T11:48:50.926Z,5.40
2023-05-15T11:51:56.396Z,4.97
2023-05-15T11:55:03.005Z,4.85
2023-05-15T11:58:14.281Z,6.15
2023-05-15T12:01:19.985Z,5.18
2023-05-15T12:04:25.430Z,6.45
2023-05-15T12:07:31.870Z,4.25
2023-05-15T12:10:44.401Z,4.60
2023-05-15T12:13:55.383Z,4.03
2023-05-15T12:20:12.926Z,3.25
2023-05-15T12:23:18.769Z,4.88
2023-05-15T12:26:25.056Z,4.30
2023-05-15T12:29:30.996Z,3.90
2023-05-15T12:32:38.453Z,4.28
2023-05-15T12:35:49.778Z,4.43
2023-05-15T12:38:55.978Z,4.65
2023-05-15T12:42:01.649Z,4.10
2023-05-15T12:45:14.670Z,6.15
2023-05-15T12:48:20.491Z,6.45
2023-05-15T12:51:25.897Z,6.50
2023-05-15T12:54:31.422Z,6.38
2023-05-15T12:57:37.053Z,4.80
2023-05-15T13:00:46.466Z,4.38
2023-05-15T13:03:52.511Z,3.80
2023-05-15T13:07:02.215Z,3.53
2023-05-15T13:10:09.221Z,3.80
2023-05-15T13:13:15.453Z,2.97
2023-05-15T13:16:22.813Z,3.50
2023-05-15T13:19:27.803Z,2.85
2023-05-15T13:22:35.670Z,3.03
2023-05-15T13:25:41.071Z,2.53
2023-05-15T13:28:46.476Z,2.10
2023-05-15T13:31:51.842Z,2.40
2023-05-15T13:34:59.059Z,2.45
2023-05-15T13:38:04.935Z,2.72
2023-05-15T13:41:10.196Z,2.58
2023-05-15T13:44:15.843Z,2.70
2023-05-15T13:47:21.172Z,1.70
2023-05-15T13:50:26.749Z,1.63
2023-05-15T13:53:32.494Z,1.33
2023-05-15T13:56:37.715Z,1.50
2023-05-15T13:59:43.243Z,1.70
2023-05-15T14:02:48.709Z,1.92
2023-05-15T14:05:54.174Z,1.60
2023-05-15T14:08:59.586Z,1.60
2023-05-15T14:12:05.682Z,1.20
2023-05-15T14:15:12.291Z,1.20
2023-05-15T14:18:17.808Z,1.45
2023-05-15T14:21:23.502Z,1.60
2023-05-15T14:24:28.783Z,1.73
2023-05-15T14:27:35.621Z,1.00
2023-05-15T14:30:41.284Z,1.38
2023-05-15T14:33:46.936Z,1.30
2023-05-15T14:36:52.768Z,1.58
2023-05-15T14:39:58.641Z,1.15
2023-05-15T14:43:04.118Z,1.30
2023-05-15T14:46:11.366Z,1.50
2023-05-15T14:49:17.095Z,1.10
2023-05-15T14:52:22.906Z,1.08
2023-05-15T14:55:28.702Z,1.63
2023-05-15T14:58:33.798Z,1.35
2023-05-15T15:01:38.964Z,1.15
2023-05-15T15:04:45.213Z,1.25
2023-05-15T15:08:02.618Z,1.50
2023-05-15T15:11:08.369Z,1.10
2023-05-15T15:14:13.392Z,1.15
2023-05-15T15:17:19.679Z,1.63
2023-05-15T15:20:26.569Z,1.77
2023-05-15T15:23:32.682Z,1.42
2023-05-15T15:26:39.113Z,1.35
2023-05-15T15:29:44.706Z,1.42
2023-05-15T15:32:50.689Z,1.75
2023-05-15T15:35:56.663Z,1.50
2023-05-15T15:39:02.368Z,1.75
2023-05-15T15:42:07.713Z,1.77
2023-05-15T15:45:12.856Z,1.48
2023-05-15T15:48:19.483Z,1.50
2023-05-15T15:51:24.882Z,1.63
2023-05-15T15:54:30.719Z,1.58
2023-05-15T15:57:37.063Z,1.20
2023-05-15T16:00:43.190Z,1.25
2023-05-15T16:03:49.336Z,1.20
2023-05-15T16:06:55.087Z,1.10
2023-05-15T16:10:12.594Z,1.63
2023-05-15T16:13:19.234Z,1.73
2023-05-15T16:16:24.503Z,1.58
2023-05-15T16:19:30.646Z,1.55
2023-05-15T16:22:36.489Z,1.50
2023-05-15T16:25:44.640Z,1.00
2023-05-15T16:28:50.900Z,1.17
2023-05-15T16:31:57.642Z,0.80
2023-05-15T16:35:03.078Z,0.80
2023-05-15T16:38:08.468Z,1.00
2023-05-15T16:41:13.604Z,0.88
2023-05-15T16:44:19.528Z,0.80
2023-05-15T16:47:25.196Z,0.77
2023-05-15T16:50:36.591Z,1.10
2023-05-15T16:53:41.591Z,1.35
2023-05-15T16:56:46.741Z,1.00
2023-05-15T16:59:51.864Z,0.85
2023-05-15T17:02:57.390Z,1.00
2023-05-15T17:06:03.207Z,0.60
2023-05-15T17:09:09.045Z,0.80
2023-05-15T17:12:14.456Z,1.13
2023-05-15T17:15:19.737Z,1.00
2023-05-15T17:18:24.976Z,1.02
2023-05-15T17:21:30.976Z,1.10
2023-05-15T17:24:49.994Z,1.45
2023-05-15T17:27:56.470Z,0.95
2023-05-15T17:31:08.394Z,0.88
2023-05-15T17:34:14.232Z,0.68
2023-05-15T17:37:19.576Z,1.10
2023-05-15T17:40:25.342Z,1.10
2023-05-15T17:43:30.823Z,1.00
2023-05-15T17:46:36.398Z,1.00
2023-05-15T17:49:42.071Z,1.73
2023-05-15T17:52:47.643Z,1.70
2023-05-15T17:55:53.212Z,1.88
2023-05-15T17:58:58.936Z,1.25
2023-05-15T18:02:04.719Z,1.55
2023-05-15T18:05:10.783Z,1.17
2023-05-15T18:08:16.630Z,1.02
2023-05-15T18:11:22.808Z,1.45
2023-05-15T18:14:28.603Z,1.52
2023-05-15T18:17:34.206Z,1.33
2023-05-15T18:20:39.926Z,1.75
2023-05-15T18:23:45.389Z,2.05
2023-05-15T18:26:50.655Z,2.08
2023-05-15T18:29:56.300Z,2.90
2023-05-15T18:33:02.063Z,3.17
2023-05-15T18:36:07.958Z,2.58
2023-05-15T18:39:15.787Z,2.80
2023-05-15T18:42:21.563Z,2.92
2023-05-15T18:45:27.646Z,2.88
2023-05-15T18:48:33.134Z,2.80
2023-05-15T18:51:38.526Z,2.88
2023-05-15T18:54:44.277Z,2.92
2023-05-15T18:57:50.221Z,3.50
2023-05-15T19:00:56.854Z,3.65
2023-05-15T19:04:04.176Z,4.20
2023-05-15T19:07:09.824Z,4.25
2023-05-15T19:10:15.183Z,4.82
2023-05-15T19:13:20.616Z,6.00
2023-05-15T19:16:28.759Z,7.25
2023-05-15T19:19:34.828Z,5.85
2023-05-15T19:22:40.096Z,6.63
2023-05-15T19:25:45.612Z,7.03
2023-05-15T19:28:53.063Z,6.03
2023-05-15T19:31:58.542Z,5.40
2023-05-15T19:35:04.333Z,5.45
2023-05-15T19:38:10.095Z,4.70
2023-05-15T19:41:16.040Z,4.63
2023-05-15T19:44:22.981Z,4.72
2023-05-15T19:47:28.744Z,4.18
2023-05-15T19:50:34.830Z,4.50
2023-05-15T19:53:40.118Z,4.10
2023-05-15T19:56:45.778Z,3.88
2023-05-15T19:59:51.248Z,4.50
2023-05-15T20:02:57.004Z,4.85
2023-05-15T20:06:03.060Z,4.18
2023-05-15T20:09:08.361Z,4.40
2023-05-15T20:12:14.152Z,4.45
2023-05-15T20:15:19.961Z,4.28
2023-05-15T20:18:27.563Z,3.78
2023-05-15T20:21:33.292Z,4.82
2023-05-15T20:24:38.964Z,5.28
2023-05-15T20:27:44.917Z,5.13
2023-05-15T20:30:50.263Z,5.38
2023-05-15T20:33:57.371Z,5.53
2023-05-15T20:37:02.935Z,5.65
2023-05-15T20:40:11.123Z,5.28
2023-05-15T20:43:16.533Z,5.13
2023-05-15T20:46:22.205Z,6.03
2023-05-15T20:49:28.057Z,5.55
2023-05-15T20:52:34.164Z,5.32
2023-05-15T20:55:40.148Z,5.95
2023-05-15T20:58:46.010Z,5.10
2023-05-15T21:01:51.597Z,5.38
2023-05-15T21:04:56.852Z,5.00
2023-05-15T21:08:03.183Z,5.20
2023-05-15T21:11:08.794Z,6.05
2023-05-15T21:14:14.849Z,5.80
2023-05-15T21:17:20.652Z,6.00
2023-05-15T21:20:27.418Z,5.90
2023-05-15T21:23:36.712Z,5.85
2023-05-15T21:26:42.914Z,6.10
2023-05-15T21:29:49.142Z,5.18
2023-05-15T21:32:54.723Z,5.82
2023-05-15T21:36:00.381Z,5.85
2023-05-15T21:39:06.810Z,5.70
2023-05-15T21:42:12.030Z,6.07
2023-05-15T21:45:17.794Z,5.43
2023-05-15T21:48:23.721Z,5.03
2023-05-15T21:51:29.518Z,5.45
2023-05-15T21:54:35.314Z,5.88
2023-05-15T21:57:40.779Z,5.65
2023-05-15T22:00:46.863Z,5.65
2023-05-15T22:03:52.423Z,6.55
2023-05-15T22:06:58.297Z,6.03
2023-05-15T22:10:05.092Z,6.20
2023-05-15T22:13:10.475Z,5.28
2023-05-15T22:16:16.249Z,6.07
2023-05-15T22:22:35.737Z,5.18
2023-05-15T22:25:41.127Z,5.72
2023-05-15T22:28:47.423Z,4.32
2023-05-15T22:31:53.285Z,3.30
2023-05-15T22:34:59.024Z,3.28
2023-05-15T22:38:06.031Z,3.53
2023-05-15T22:41:11.462Z,3.10
2023-05-15T22:44:17.320Z,3.00
2023-05-15T22:47:22.812Z,2.50
2023-05-15T22:50:28.520Z,3.03
2023-05-15T22:53:34.025Z,3.20
2023-05-15T22:56:39.780Z,2.58
2023-05-15T22:59:45.707Z,2.50
2023-05-15T23:02:51.215Z,2.72
2023-05-15T23:05:57.349Z,2.20
2023-05-15T23:09:05.006Z,2.42
2023-05-15T23:12:11.017Z,2.20
2023-05-15T23:15:17.052Z,2.10
2023-05-15T23:18:22.573Z,2.25
2023-05-15T23:21:28.816Z,2.05
2023-05-15T23:24:34.275Z,1.73
2023-05-15T23:27:39.807Z,2.28
2023-05-15T23:30:45.159Z,2.22
2023-05-15T23:33:51.058Z,2.20
2023-05-15T23:36:56.659Z,2.83
2023-05-15T23:40:02.435Z,2.25
2023-05-15T23:43:08.375Z,2.63
2023-05-15T23:46:14.154Z,2.60
2023-05-15T23:49:19.603Z,3.05
2023-05-15T23:52:25.151Z,2.75
2023-05-15T23:55:30.904Z,2.38
2023-05-15T23:58:36.487Z,2.30
